Time,TemperatureF,DewpointF,PressureIn,WindDirection,WindDirectionDegrees,WindSpeedMPH,WindSpeedGustMPH,Humidity,HourlyPrecipIn,Conditions,Clouds,dailyrainin,SoftwareType,DateUTC
2013-12-22 00:01:00,46.7,30.0,30.16,SSW,210,0.0,0.0,52,0.00,,,0.00,weatherlink.com 1.10,2013-12-22 08:01:00,
2013-12-22 00:16:00,46.2,30.0,30.16,SSW,210,0.0,1.0,53,0.00,,,0.00,weatherlink.com 1.10,2013-12-22 08:16:00,
2013-12-22 00:31:00,46.8,30.0,30.16,SSW,210,0.0,0.0,52,0.00,,,0.00,weatherlink.com 1.10,2013-12-22 08:31:00,
2013-12-22 00:46:00,46.2,30.0,30.16,SE,136,0.0,0.0,53,0.00,,,0.00,weatherlink.com 1.10,2013-12-22 08:46:00,
2013-12-22 01:01:00,45.9,30.0,30.16,ESE,118,0.0,0.0,54,0.00,,,0.00,weatherlink.com 1.10,2013-12-22 09:01:00,
2013-12-22 01:16:00,45.4,29.0,30.16,ESE,118,0.0,0.0,54,0.00,,,0.00,weatherlink.com 1.10,2013-12-22 09:16:00,
2013-12-22 01:31:00,45.6,30.0,30.17,South,191,0.0,0.0,54,0.00,,,0.00,weatherlink.com 1.10,2013-12-22 09:31:00,
2013-12-22 01:46:00,45.7,30.0,30.17,WSW,243,0.0,0.0,54,0.00,,,0.00,weatherlink.com 1.10,2013-12-22 09:46:00,
2013-12-22 02:01:00,45.6,30.0,30.17,WSW,255,0.0,0.0,54,0.00,,,0.00,weatherlink.com 1.10,2013-12-22 10:01:00,
2013-12-22 02:16:00,45.7,29.0,30.18,WSW,252,3.0,4.0,53,0.00,,,0.00,weatherlink.com 1.10,2013-12-22 10:16:00,
2013-12-22 02:31:00,46.1,29.0,30.18,WSW,255,2.0,3.0,51,0.00,,,0.00,weatherlink.com 1.10,2013-12-22 10:31:00,
2013-12-22 02:46:00,45.4,29.0,30.19,WSW,256,3.0,4.0,53,0.00,,,0.00,weatherlink.com 1.10,2013-12-22 10:46:00,
2013-12-22 03:02:00,45.0,29.0,30.20,WSW,249,1.0,3.0,53,0.00,,,0.00,weatherlink.com 1.10,2013-12-22 11:02:00,
2013-12-22 03:17:00,44.6,29.0,30.19,WSW,247,0.0,1.0,54,0.00,,,0.00,weatherlink.com 1.10,2013-12-22 11:17:00,
2013-12-22 03:32:00,44.5,29.0,30.20,West,259,2.0,2.0,54,0.00,,,0.00,weatherlink.com 1.10,2013-12-22 11:32:00,
2013-12-22 03:47:00,44.3,28.0,30.20,WSW,257,2.0,4.0,54,0.00,,,0.00,weatherlink.com 1.10,2013-12-22 11:47:00,
2013-12-22 04:02:00,44.1,29.0,30.20,WSW,251,2.0,4.0,55,0.00,,,0.00,weatherlink.com 1.10,2013-12-22 12:02:00,
2013-12-22 04:17:00,44.6,29.0,30.20,WSW,257,3.0,4.0,54,0.00,,,0.00,weatherlink.com 1.10,2013-12-22 12:17:00,
2013-12-22 04:32:00,44.6,29.0,30.21,WSW,250,1.0,3.0,55,0.00,,,0.00,weatherlink.com 1.10,2013-12-22 12:32:00,
2013-12-22 04:47:00,44.3,29.0,30.22,WSW,250,1.0,2.0,56,0.00,,,0.00,weatherlink.com 1.10,2013-12-22 12:47:00,
2013-12-22 05:02:00,43.6,29.0,30.22,SW,230,1.0,2.0,57,0.00,,,0.00,weatherlink.com 1.10,2013-12-22 13:02:00,
2013-12-22 05:17:00,43.8,30.0,30.22,WSW,254,1.0,1.0,58,0.00,,,0.00,weatherlink.com 1.10,2013-12-22 13:17:00,
2013-12-22 05:32:00,43.4,29.0,30.23,WSW,252,0.0,0.0,58,0.00,,,0.00,weatherlink.com 1.10,2013-12-22 13:32:00,
2013-12-22 05:47:00,43.8,30.0,30.23,SW,231,0.0,0.0,58,0.00,,,0.00,weatherlink.com 1.10,2013-12-22 13:47:00,
2013-12-22 06:02:00,43.4,30.0,30.23,SW,234,0.0,0.0,59,0.00,,,0.00,weatherlink.com 1.10,2013-12-22 14:02:00,
2013-12-22 06:17:00,43.5,30.0,30.24,SW,229,0.0,0.0,59,0.00,,,0.00,weatherlink.com 1.10,2013-12-22 14:17:00,
2013-12-22 06:32:00,42.9,29.0,30.24,WSW,249,1.0,2.0,59,0.00,,,0.00,weatherlink.com 1.10,2013-12-22 14:32:00,
2013-12-22 06:47:00,42.8,29.0,30.25,West,260,2.0,3.0,59,0.00,,,0.00,weatherlink.com 1.10,2013-12-22 14:47:00,
2013-12-22 07:02:00,42.5,29.0,30.25,West,269,1.0,2.0,59,0.00,,,0.00,weatherlink.com 1.10,2013-12-22 15:02:00,
2013-12-22 07:17:00,42.2,29.0,30.27,WSW,257,3.0,3.0,61,0.00,,,0.00,weatherlink.com 1.10,2013-12-22 15:17:00,
2013-12-22 07:32:00,43.2,30.0,30.27,West,261,2.0,4.0,59,0.00,,,0.00,weatherlink.com 1.10,2013-12-22 15:32:00,
2013-12-22 07:47:00,43.4,29.0,30.28,West,261,0.0,2.0,58,0.00,,,0.00,weatherlink.com 1.10,2013-12-22 15:47:00,
2013-12-22 08:02:00,43.7,30.0,30.29,WNW,288,0.0,1.0,58,0.00,,,0.00,weatherlink.com 1.10,2013-12-22 16:02:00,
2013-12-22 08:17:00,44.5,30.0,30.30,WNW,282,0.0,1.0,57,0.00,,,0.00,weatherlink.com 1.10,2013-12-22 16:17:00,
2013-12-22 08:32:00,46.9,30.0,30.30,ESE,108,0.0,1.0,53,0.00,,,0.00,weatherlink.com 1.10,2013-12-22 16:32:00,
2013-12-22 08:47:00,47.7,30.0,30.31,East,85,0.0,0.0,51,0.00,,,0.00,weatherlink.com 1.10,2013-12-22 16:47:00,
2013-12-22 09:02:00,46.5,29.0,30.32,East,85,0.0,0.0,51,0.00,,,0.00,weatherlink.com 1.10,2013-12-22 17:02:00,
2013-12-22 09:17:00,47.4,30.0,30.33,NE,45,0.0,0.0,52,0.00,,,0.00,weatherlink.com 1.10,2013-12-22 17:17:00,
2013-12-22 09:32:00,48.7,31.0,30.34,ESE,113,2.0,2.0,50,0.00,,,0.00,weatherlink.com 1.10,2013-12-22 17:32:00,
2013-12-22 09:48:00,49.8,31.0,30.34,NE,46,3.0,4.0,49,0.00,,,0.00,weatherlink.com 1.10,2013-12-22 17:48:00,
2013-12-22 10:03:00,50.4,32.0,30.34,NE,34,3.0,4.0,49,0.00,,,0.00,weatherlink.com 1.10,2013-12-22 18:03:00,
2013-12-22 10:18:00,50.8,31.0,30.34,NE,47,1.0,3.0,47,0.00,,,0.00,weatherlink.com 1.10,2013-12-22 18:18:00,
2013-12-22 10:33:00,52.0,31.0,30.34,ESE,115,1.0,4.0,44,0.00,,,0.00,weatherlink.com 1.10,2013-12-22 18:33:00,
2013-12-22 10:48:00,52.7,31.0,30.34,ESE,103,3.0,4.0,43,0.00,,,0.00,weatherlink.com 1.10,2013-12-22 18:48:00,
2013-12-22 11:03:00,52.9,31.0,30.34,North,11,0.0,5.0,43,0.00,,,0.00,weatherlink.com 1.10,2013-12-22 19:03:00,
2013-12-22 11:18:00,54.0,32.0,30.33,ENE,71,2.0,4.0,43,0.00,,,0.00,weatherlink.com 1.10,2013-12-22 19:18:00,
2013-12-22 11:33:00,54.5,30.0,30.33,ESE,103,1.0,5.0,40,0.00,,,0.00,weatherlink.com 1.10,2013-12-22 19:33:00,
2013-12-22 11:48:00,54.2,31.0,30.32,ESE,113,3.0,5.0,42,0.00,,,0.00,weatherlink.com 1.10,2013-12-22 19:48:00,
2013-12-22 12:03:00,54.2,30.0,30.32,ENE,65,0.0,6.0,40,0.00,,,0.00,weatherlink.com 1.10,2013-12-22 20:03:00,
2013-12-22 12:18:00,54.5,30.0,30.32,SE,136,0.0,5.0,40,0.00,,,0.00,weatherlink.com 1.10,2013-12-22 20:18:00,
2013-12-22 12:33:00,54.4,30.0,30.32,NE,39,4.0,7.0,40,0.00,,,0.00,weatherlink.com 1.10,2013-12-22 20:33:00,
2013-12-22 12:48:00,54.6,30.0,30.32,NE,54,2.0,4.0,39,0.00,,,0.00,weatherlink.com 1.10,2013-12-22 20:48:00,
2013-12-22 13:03:00,54.4,30.0,30.32,ENE,72,3.0,6.0,40,0.00,,,0.00,weatherlink.com 1.10,2013-12-22 21:03:00,
2013-12-22 13:18:00,54.1,29.0,30.32,East,98,1.0,6.0,39,0.00,,,0.00,weatherlink.com 1.10,2013-12-22 21:18:00,
2013-12-22 13:33:00,54.4,29.0,30.31,ENE,66,1.0,4.0,38,0.00,,,0.00,weatherlink.com 1.10,2013-12-22 21:33:00,
2013-12-22 13:48:00,54.2,29.0,30.31,ENE,61,2.0,5.0,38,0.00,,,0.00,weatherlink.com 1.10,2013-12-22 21:48:00,
2013-12-22 14:03:00,54.1,29.0,30.31,SE,127,0.0,3.0,39,0.00,,,0.00,weatherlink.com 1.10,2013-12-22 22:03:00,
2013-12-22 14:18:00,53.9,30.0,30.31,NE,53,3.0,4.0,40,0.00,,,0.00,weatherlink.com 1.10,2013-12-22 22:18:00,
2013-12-22 14:33:00,53.8,30.0,30.31,SE,133,1.0,2.0,40,0.00,,,0.00,weatherlink.com 1.10,2013-12-22 22:33:00,
2013-12-22 14:48:00,53.4,30.0,30.31,ESE,105,0.0,3.0,41,0.00,,,0.00,weatherlink.com 1.10,2013-12-22 22:48:00,
2013-12-22 15:03:00,54.4,31.0,30.31,SE,144,1.0,3.0,41,0.00,,,0.00,weatherlink.com 1.10,2013-12-22 23:03:00,
2013-12-22 15:18:00,54.6,31.0,30.32,SE,130,0.0,2.0,40,0.00,,,0.00,weatherlink.com 1.10,2013-12-22 23:18:00,
2013-12-22 15:33:00,54.6,31.0,30.32,SSE,155,0.0,2.0,40,0.00,,,0.00,weatherlink.com 1.10,2013-12-22 23:33:00,
2013-12-22 15:48:00,52.9,30.0,30.32,SSE,148,1.0,2.0,41,0.00,,,0.00,weatherlink.com 1.10,2013-12-22 23:48:00,
2013-12-22 16:03:00,50.3,30.0,30.33,SSE,155,1.0,2.0,46,0.00,,,0.00,weatherlink.com 1.10,2013-12-23 00:03:00,
2013-12-22 16:18:00,49.2,30.0,30.33,South,170,1.0,2.0,47,0.00,,,0.00,weatherlink.com 1.10,2013-12-23 00:18:00,
2013-12-22 16:33:00,48.7,30.0,30.34,South,169,0.0,1.0,48,0.00,,,0.00,weatherlink.com 1.10,2013-12-23 00:33:00,
2013-12-22 16:48:00,48.0,30.0,30.34,SSE,165,1.0,1.0,50,0.00,,,0.00,weatherlink.com 1.10,2013-12-23 00:48:00,
2013-12-22 17:03:00,47.5,30.0,30.34,South,171,0.0,1.0,51,0.00,,,0.00,weatherlink.com 1.10,2013-12-23 01:03:00,
2013-12-22 17:18:00,47.6,30.0,30.34,SSE,159,1.0,1.0,51,0.00,,,0.00,weatherlink.com 1.10,2013-12-23 01:18:00,
2013-12-22 17:33:00,47.7,30.0,30.35,SSE,156,0.0,1.0,51,0.00,,,0.00,weatherlink.com 1.10,2013-12-23 01:33:00,
2013-12-22 17:48:00,48.1,30.0,30.36,SSE,153,0.0,0.0,50,0.00,,,0.00,weatherlink.com 1.10,2013-12-23 01:48:00,
2013-12-22 18:03:00,48.2,30.0,30.36,SSE,154,0.0,0.0,49,0.00,,,0.00,weatherlink.com 1.10,2013-12-23 02:03:00,
2013-12-22 18:18:00,47.6,30.0,30.36,SE,132,0.0,0.0,51,0.00,,,0.00,weatherlink.com 1.10,2013-12-23 02:18:00,
2013-12-22 18:33:00,47.2,29.0,30.37,SE,132,0.0,0.0,50,0.00,,,0.00,weatherlink.com 1.10,2013-12-23 02:33:00,
2013-12-22 18:48:00,46.3,30.0,30.37,SE,132,0.0,0.0,53,0.00,,,0.00,weatherlink.com 1.10,2013-12-23 02:48:00,
2013-12-22 19:03:00,46.9,29.0,30.38,SE,131,0.0,0.0,51,0.00,,,0.00,weatherlink.com 1.10,2013-12-23 03:03:00,
2013-12-22 19:18:00,47.0,30.0,30.38,SE,133,0.0,0.0,52,0.00,,,0.00,weatherlink.com 1.10,2013-12-23 03:18:00,
2013-12-22 19:33:00,47.2,30.0,30.38,SE,137,0.0,0.0,51,0.00,,,0.00,weatherlink.com 1.10,2013-12-23 03:33:00,
2013-12-22 19:48:00,47.1,30.0,30.39,ENE,75,2.0,2.0,51,0.00,,,0.00,weatherlink.com 1.10,2013-12-23 03:48:00,
2013-12-22 20:03:00,46.6,29.0,30.39,ESE,110,0.0,2.0,51,0.00,,,0.00,weatherlink.com 1.10,2013-12-23 04:03:00,
2013-12-22 20:18:00,45.9,29.0,30.39,SE,127,0.0,1.0,51,0.00,,,0.00,weatherlink.com 1.10,2013-12-23 04:18:00,
2013-12-22 20:33:00,45.4,28.0,30.39,SSE,152,0.0,1.0,51,0.00,,,0.00,weatherlink.com 1.10,2013-12-23 04:33:00,
2013-12-22 20:48:00,44.8,28.0,30.39,SE,127,0.0,2.0,52,0.00,,,0.00,weatherlink.com 1.10,2013-12-23 04:48:00,
2013-12-22 21:03:00,44.3,28.0,30.39,ENE,70,0.0,1.0,54,0.00,,,0.00,weatherlink.com 1.10,2013-12-23 05:03:00,
2013-12-22 21:18:00,44.3,28.0,30.40,East,86,0.0,1.0,54,0.00,,,0.00,weatherlink.com 1.10,2013-12-23 05:18:00,
2013-12-22 21:33:00,44.0,29.0,30.40,East,80,0.0,1.0,55,0.00,,,0.00,weatherlink.com 1.10,2013-12-23 05:33:00,
2013-12-22 21:49:00,44.2,28.0,30.41,NE,53,0.0,1.0,54,0.00,,,0.00,weatherlink.com 1.10,2013-12-23 05:49:00,
2013-12-22 22:04:00,44.5,28.0,30.41,East,85,0.0,5.0,53,0.00,,,0.00,weatherlink.com 1.10,2013-12-23 06:04:00,
2013-12-22 22:19:00,45.1,28.0,30.42,ENE,71,1.0,4.0,51,0.00,,,0.00,weatherlink.com 1.10,2013-12-23 06:19:00,
2013-12-22 22:34:00,44.9,28.0,30.42,ESE,108,1.0,3.0,51,0.00,,,0.00,weatherlink.com 1.10,2013-12-23 06:34:00,
2013-12-22 22:49:00,44.2,27.0,30.43,SSE,160,0.0,1.0,52,0.00,,,0.00,weatherlink.com 1.10,2013-12-23 06:49:00,
2013-12-22 23:04:00,43.7,27.0,30.43,ESE,115,0.0,1.0,53,0.00,,,0.00,weatherlink.com 1.10,2013-12-23 07:04:00,
2013-12-22 23:19:00,43.1,28.0,30.43,SSW,198,0.0,1.0,55,0.00,,,0.00,weatherlink.com 1.10,2013-12-23 07:19:00,
2013-12-22 23:34:00,42.7,28.0,30.43,South,190,0.0,2.0,56,0.00,,,0.00,weatherlink.com 1.10,2013-12-23 07:34:00,
2013-12-22 23:49:00,42.7,28.0,30.43,ESE,107,0.0,2.0,56,0.00,,,0.00,weatherlink.com 1.10,2013-12-23 07:49:00,